Time;durP1;ratioP1;P1;durP2;ratioP2;P2;SDS_P1;SDS_P2;PMS_P1;PMS_P2;Temp;Humidity;BMP_temperature;BMP_pressure;BME280_temperature;BME280_humidity;BME280_pressure;Samples;Min_cycle;Max_cycle;Signal;HPM_P1;HPM_P2
2021/12/05 00:21:40;;;;;;;17.10;3.35;;;;;;;2.19;100.00;99818.31;5088684;28;20457;-75
2021/12/05 00:24:20;;;;;;;20.63;3.90;;;;;;;2.24;100.00;99832.03;5084070;28;20028;-76
2021/12/05 00:26:55;;;;;;;18.42;4.95;;;;;;;2.34;100.00;99818.09;5087178;28;20030;-75
2021/12/05 00:47:56;;;;;;;14.48;3.97;;;;;;;2.13;100.00;99825.66;5082440;28;20052;-75
2021/12/05 01:00:09;;;;;;;13.65;3.33;;;;;;;1.91;100.00;99830.53;5086331;28;20498;-76
2021/12/05 01:15:55;;;;;;;19.27;4.15;;;;;;;2.03;100.00;99837.03;5083348;28;20130;-75
2021/12/05 01:18:21;;;;;;;24.73;4.15;;;;;;;1.94;100.00;99830.66;5085909;28;20023;-74
2021/12/05 01:20:55;;;;;;;14.32;4.05;;;;;;;1.92;100.00;99838.19;5084692;28;20032;-75
2021/12/05 01:31:45;;;;;;;20.67;4.63;;;;;;;1.71;100.00;99835.56;5086007;28;20097;-75
2021/12/05 01:34:23;;;;;;;20.15;4.75;;;;;;;1.51;100.00;99833.72;5089615;28;20028;-76
2021/12/05 02:00:34;;;;;;;26.98;5.40;;;;;;;1.38;100.00;99828.88;5089227;28;20036;-76
2021/12/05 02:08:47;;;;;;;18.33;4.78;;;;;;;1.24;100.00;99821.50;5091191;28;20497;-75
2021/12/05 02:43:00;;;;;;;17.85;5.18;;;;;;;1.60;100.00;99819.84;5092416;28;20123;-76
2021/12/05 02:45:26;;;;;;;21.67;4.28;;;;;;;1.54;100.00;99795.88;5078368;28;20062;-76
2021/12/05 02:47:53;;;;;;;16.98;4.00;;;;;;;1.48;100.00;99791.41;5088053;28;20016;-76
2021/12/05 02:50:25;;;;;;;23.55;4.32;;;;;;;1.48;100.00;99796.47;5085416;28;20482;-75
2021/12/05 02:52:55;;;;;;;19.42;4.22;;;;;;;1.49;100.00;99794.78;5095930;28;20039;-75
2021/12/05 02:55:34;;;;;;;18.52;4.03;;;;;;;1.58;100.00;99813.84;5085932;28;20403;-75
2021/12/05 02:58:02;;;;;;;17.30;3.92;;;;;;;1.55;100.00;99817.88;5090183;28;20046;-75
2021/12/05 03:01:10;;;;;;;20.58;4.15;;;;;;;1.55;100.00;99811.16;5088192;28;20101;-75
2021/12/05 03:03:30;;;;;;;18.63;4.03;;;;;;;1.50;100.00;99817.66;5084474;28;20035;-75
2021/12/05 03:06:03;;;;;;;19.05;3.80;;;;;;;1.53;100.00;99799.22;5092386;28;20020;-75
2021/12/05 03:08:29;;;;;;;21.45;4.05;;;;;;;1.78;100.00;99813.91;5092489;28;20020;-76
2021/12/05 03:10:56;;;;;;;27.00;4.05;;;;;;;1.82;100.00;99815.75;5089578;28;20359;-76
2021/12/05 03:13:22;;;;;;;11.32;3.25;;;;;;;1.93;100.00;99809.50;5093368;28;20024;-75
2021/12/05 03:15:48;;;;;;;17.73;3.28;;;;;;;2.00;100.00;99815.72;5091048;28;20020;-75
2021/12/05 03:18:14;;;;;;;13.07;3.35;;;;;;;1.95;100.00;99800.31;5091678;28;20030;-75
2021/12/05 03:20:40;;;;;;;17.48;3.85;;;;;;;1.91;100.00;99798.44;5087255;28;20233;-75
2021/12/05 03:23:05;;;;;;;20.05;4.22;;;;;;;2.02;100.00;99807.41;5091059;28;20032;-76
2021/12/05 03:25:31;;;;;;;18.15;3.92;;;;;;;1.90;100.00;99778.97;5088577;28;20427;-75
2021/12/05 03:27:57;;;;;;;15.95;3.75;;;;;;;1.87;100.00;99774.59;5090176;28;20475;-76
2021/12/05 03:30:26;;;;;;;15.65;3.90;;;;;;;1.88;100.00;99790.69;5090423;28;20028;-76
2021/12/05 03:32:53;;;;;;;13.90;3.85;;;;;;;1.92;100.00;99805.25;5088253;28;20035;-75
2021/12/05 03:35:22;;;;;;;17.00;3.90;;;;;;;1.96;100.00;99798.66;5086190;28;20036;-76
2021/12/05 03:37:50;;;;;;;19.48;3.72;;;;;;;1.86;100.00;99795.69;5086441;28;20107;-75
2021/12/05 03:40:19;;;;;;;12.02;2.95;;;;;;;1.91;100.00;99800.13;5088696;28;20032;-76
2021/12/05 03:42:47;;;;;;;16.73;4.30;;;;;;;1.88;100.00;99801.72;5090277;28;20434;-75
2021/12/05 03:45:18;;;;;;;14.27;3.75;;;;;;;1.91;100.00;99807.72;5088392;28;20078;-75
2021/12/05 03:47:44;;;;;;;17.25;3.95;;;;;;;1.96;100.00;99791.06;5070328;28;20029;-75
2021/12/05 03:50:11;;;;;;;15.95;4.32;;;;;;;2.04;100.00;99807.47;5090744;28;20027;-75
2021/12/05 03:52:37;;;;;;;12.43;4.20;;;;;;;2.02;100.00;99806.53;5085921;28;20059;-75
2021/12/05 03:55:11;;;;;;;20.23;4.90;;;;;;;2.07;100.00;99810.16;5089486;28;20035;-75
2021/12/05 03:57:46;;;;;;;13.65;4.05;;;;;;;2.09;100.00;99816.16;5089239;28;20140;-76
2021/12/05 04:00:19;;;;;;;11.82;4.15;;;;;;;2.08;100.00;99814.41;5088175;28;20033;-76
2021/12/05 04:02:48;;;;;;;11.25;3.67;;;;;;;2.11;100.00;99807.81;5090157;28;20036;-76
2021/12/05 04:05:14;;;;;;;16.13;4.40;;;;;;;2.19;100.00;99817.44;5086520;28;20039;-76
2021/12/05 04:07:39;;;;;;;14.30;3.67;;;;;;;2.20;100.00;99799.75;5090075;28;20092;-76
2021/12/05 04:10:05;;;;;;;15.75;4.70;;;;;;;2.18;100.00;99800.47;5090793;28;20487;-76
2021/12/05 04:12:31;;;;;;;18.73;4.68;;;;;;;2.18;100.00;99792.84;5089400;28;20050;-76
2021/12/05 04:15:03;;;;;;;19.08;6.30;;;;;;;2.33;100.00;99798.63;5090708;28;20357;-75
2021/12/05 04:17:36;;;;;;;15.52;5.05;;;;;;;2.38;100.00;99807.31;5089724;28;20479;-76
2021/12/05 04:20:04;;;;;;;9.68;3.95;;;;;;;2.45;100.00;99814.38;5088070;28;20051;-76
2021/12/05 04:22:29;;;;;;;16.60;5.32;;;;;;;2.30;100.00;99781.56;5085732;28;20509;-75
2021/12/05 04:24:55;;;;;;;12.38;4.70;;;;;;;2.44;100.00;99797.41;5089205;28;20058;-75
2021/12/05 04:27:20;;;;;;;17.83;5.43;;;;;;;2.46;100.00;99795.81;5088894;28;20067;-75
2021/12/05 04:29:47;;;;;;;16.30;4.57;;;;;;;2.49;100.00;99798.50;5068703;28;20036;-76
2021/12/05 04:32:13;;;;;;;18.65;5.80;;;;;;;2.62;100.00;99807.50;5087845;28;20053;-75
2021/12/05 04:34:38;;;;;;;18.85;5.35;;;;;;;2.41;100.00;99779.50;5081892;28;20032;-76
2021/12/05 04:37:04;;;;;;;11.80;4.85;;;;;;;2.57;100.00;99797.13;5088518;28;20052;-76
2021/12/05 04:39:31;;;;;;;17.20;5.88;;;;;;;2.58;100.00;99796.34;5090081;28;20068;-76
2021/12/05 04:41:58;;;;;;;21.35;6.03;;;;;;;2.52;100.00;99813.84;5093171;28;20192;-76
2021/12/05 04:44:25;;;;;;;12.38;4.88;;;;;;;2.50;100.00;99795.16;5091211;28;20540;-77
2021/12/05 04:46:52;;;;;;;14.60;6.15;;;;;;;2.38;100.00;99784.47;5093409;28;20043;-76
2021/12/05 04:49:17;;;;;;;13.40;5.38;;;;;;;2.51;100.00;99817.19;5090405;28;20036;-75
2021/12/05 04:51:45;;;;;;;16.85;5.75;;;;;;;2.58;100.00;99816.63;5093535;28;20111;-76
2021/12/05 04:54:14;;;;;;;14.32;5.38;;;;;;;2.52;100.00;99801.16;5093903;28;20032;-75
2021/12/05 04:56:41;;;;;;;13.20;5.13;;;;;;;2.49;100.00;99812.81;5093658;28;20097;-76
2021/12/05 04:59:13;;;;;;;12.95;5.28;;;;;;;2.51;100.00;99807.03;5088670;28;20530;-75
2021/12/05 05:01:40;;;;;;;15.48;5.22;;;;;;;2.46;100.00;99798.34;5070897;28;20402;-76
2021/12/05 05:04:14;;;;;;;14.05;4.75;;;;;;;2.35;100.00;99797.00;5092074;28;20020;-75
2021/12/05 05:06:39;;;;;;;9.82;4.25;;;;;;;2.36;100.00;99794.53;5089648;28;20026;-76
2021/12/05 05:09:05;;;;;;;12.85;4.13;;;;;;;2.40;100.00;99793.00;5086545;28;20032;-75
2021/12/05 05:11:30;;;;;;;9.75;3.88;;;;;;;2.49;100.00;99803.56;5088422;28;20440;-76
2021/12/05 05:13:57;;;;;;;13.27;4.45;;;;;;;2.34;100.00;99798.69;5090533;28;20058;-76
2021/12/05 05:16:26;;;;;;;12.38;4.00;;;;;;;2.45;100.00;99814.38;5054963;28;20036;-76
2021/12/05 05:18:55;;;;;;;10.30;4.38;;;;;;;2.46;100.00;99816.09;5083682;28;20051;-76
2021/12/05 05:25:07;;;;;;;11.32;4.40;;;;;;;2.41;100.00;99820.09;5084096;28;20418;-76
2021/12/05 05:50:37;;;;;;;7.45;4.03;;;;;;;2.51;100.00;99854.38;5086078;28;20043;-76
2021/12/05 05:53:03;;;;;;;8.63;3.05;;;;;;;2.47;100.00;99845.75;5087049;28;20043;-75
2021/12/05 05:55:29;;;;;;;7.05;3.58;;;;;;;2.41;100.00;99853.09;5086776;28;20024;-75
2021/12/05 05:58:02;;;;;;;8.25;3.60;;;;;;;2.45;100.00;99854.09;5090460;28;20019;-76
2021/12/05 06:00:36;;;;;;;6.97;3.20;;;;;;;2.43;100.00;99859.13;5086210;28;20028;-77
2021/12/05 06:05:45;;;;;;;6.60;3.47;;;;;;;2.42;100.00;99848.06;5086343;28;20114;-76
2021/12/05 06:08:11;;;;;;;5.97;2.75;;;;;;;2.50;100.00;99865.34;5082637;28;20116;-75
2021/12/05 06:10:37;;;;;;;10.45;3.92;;;;;;;2.48;100.00;99867.78;5069314;28;20131;-75
2021/12/05 06:13:02;;;;;;;6.15;3.42;;;;;;;2.58;100.00;99867.38;5083060;28;20464;-75
2021/12/05 06:15:29;;;;;;;8.20;3.83;;;;;;;2.40;100.00;99854.75;5083010;28;20509;-75
2021/12/05 06:17:55;;;;;;;7.00;3.28;;;;;;;2.58;100.00;99880.09;5069611;28;20059;-76
2021/12/05 06:20:25;;;;;;;5.10;2.90;;;;;;;2.48;100.00;99870.31;5100186;28;20035;-75
2021/12/05 06:22:51;;;;;;;5.90;2.97;;;;;;;2.39;100.00;99877.53;5083929;28;20030;-76
2021/12/05 06:25:23;;;;;;;5.95;2.05;;;;;;;2.33;100.00;99887.41;5044640;28;20025;-75
2021/12/05 06:27:51;;;;;;;4.43;2.67;;;;;;;2.30;100.00;99887.25;5084748;28;20028;-76
2021/12/05 06:30:28;;;;;;;4.15;2.78;;;;;;;2.30;100.00;99885.59;5089141;28;20042;-76
2021/12/05 06:38:33;;;;;;;5.95;3.20;;;;;;;2.30;100.00;99892.31;5081892;28;20106;-75
2021/12/05 06:46:28;;;;;;;5.80;3.30;;;;;;;2.25;100.00;99899.75;5086707;28;20119;-76
2021/12/05 06:48:54;;;;;;;6.43;2.83;;;;;;;2.34;100.00;99902.69;5087178;28;20028;-76
2021/12/05 06:51:23;;;;;;;3.92;2.80;;;;;;;2.34;100.00;99897.63;5085288;28;20035;-76
2021/12/05 06:53:49;;;;;;;4.68;3.13;;;;;;;2.24;100.00;99902.19;5080575;28;20019;-76
2021/12/05 06:56:16;;;;;;;5.70;3.35;;;;;;;2.23;100.00;99911.47;5083321;28;20029;-76
2021/12/05 06:58:42;;;;;;;5.10;3.35;;;;;;;2.35;100.00;99923.84;5084047;28;20055;-76
2021/12/05 07:01:10;;;;;;;6.70;3.58;;;;;;;2.30;100.00;99921.09;5083154;28;20048;-76
2021/12/05 07:03:40;;;;;;;7.13;3.60;;;;;;;2.27;100.00;99925.19;5087722;28;20028;-76
2021/12/05 07:06:10;;;;;;;4.53;3.22;;;;;;;2.31;100.00;99930.47;5088477;28;20024;-75
2021/12/05 07:08:39;;;;;;;5.20;3.42;;;;;;;2.28;100.00;99930.31;5090234;28;20024;-76
2021/12/05 07:22:13;;;;;;;6.53;3.90;;;;;;;2.36;100.00;99948.41;5091100;28;20062;-77
2021/12/05 07:40:21;;;;;;;4.82;3.88;;;;;;;2.32;100.00;99957.56;5087262;28;20028;-75
2021/12/05 07:40:58;;;;;;;6.47;4.20;;;;;;;2.42;100.00;99964.78;5091151;28;20074;-75
2021/12/05 07:43:23;;;;;;;7.78;4.72;;;;;;;2.39;100.00;99972.28;5071515;28;20031;-76
2021/12/05 07:45:57;;;;;;;6.38;4.72;;;;;;;2.47;100.00;99971.75;5089218;28;20047;-76
2021/12/05 07:48:28;;;;;;;6.50;4.80;;;;;;;2.38;100.00;99962.94;5088832;28;20031;-76
2021/12/05 07:51:11;;;;;;;8.98;4.90;;;;;;;2.47;100.00;99979.38;5088824;28;20501;-76
2021/12/05 07:56:14;;;;;;;7.90;5.07;;;;;;;2.52;100.00;99994.00;5088847;28;20032;-77
2021/12/05 07:58:54;;;;;;;7.13;5.15;;;;;;;2.50;100.00;99988.00;5092658;28;20031;-76
2021/12/05 08:14:48;;;;;;;7.38;5.47;;;;;;;2.60;100.00;99994.34;5088876;28;20047;-76
2021/12/05 08:17:17;;;;;;;8.88;5.90;;;;;;;2.47;100.00;99961.59;5086798;28;20382;-76
2021/12/05 08:19:43;;;;;;;;;;;;;;;2.68;100.00;99999.00;5070055;28;20512;-76
2021/12/05 08:22:09;;;;;;;9.18;5.60;;;;;;;2.69;100.00;99997.31;5087913;28;19915;-76
2021/12/05 08:24:39;;;;;;;8.88;4.93;;;;;;;2.75;100.00;100002.69;5087277;28;20523;-76
2021/12/05 08:27:06;;;;;;;8.50;5.70;;;;;;;2.80;100.00;100001.22;5069909;28;20051;-76
2021/12/05 08:29:36;;;;;;;9.55;5.90;;;;;;;2.86;100.00;99995.56;5088592;28;20093;-76
2021/12/05 10:01:54;;;;;;;7.85;6.63;;;;;;;3.40;100.00;100130.91;5088800;28;20059;-76
2021/12/05 10:02:12;;;;;;;9.13;6.70;;;;;;;3.38;100.00;100125.75;5089879;28;20537;-76
2021/12/05 10:12:37;;;;;;;8.60;6.50;;;;;;;3.29;100.00;100140.59;5090563;28;20056;-75
2021/12/05 10:26:39;;;;;;;11.65;7.95;;;;;;;3.44;100.00;100159.06;5091418;28;20501;-75
2021/12/05 10:37:22;;;;;;;8.93;7.47;;;;;;;3.58;100.00;100169.88;5085953;28;20048;-76
2021/12/05 10:40:01;;;;;;;10.82;8.52;;;;;;;3.66;100.00;100171.06;5088183;28;20104;-75
2021/12/05 10:42:43;;;;;;;10.95;8.32;;;;;;;3.69;100.00;100167.78;5090690;28;20032;-72
2021/12/05 10:45:27;;;;;;;10.25;8.80;;;;;;;3.68;100.00;100164.38;5085927;28;20467;-76
2021/12/05 10:47:56;;;;;;;11.48;8.65;;;;;;;3.74;100.00;100174.81;5088307;28;20024;-73
2021/12/05 10:50:30;;;;;;;10.55;9.30;;;;;;;3.72;100.00;100180.63;5087560;28;20465;-73
2021/12/05 10:53:18;;;;;;;12.73;9.65;;;;;;;3.73;100.00;100187.47;5094992;28;20035;-72
2021/12/05 10:55:44;;;;;;;10.63;9.50;;;;;;;3.71;100.00;100182.31;5083790;28;20027;-70
2021/12/05 10:58:09;;;;;;;12.88;9.82;;;;;;;3.67;100.00;100185.50;5087552;28;20552;-71
2021/12/05 11:00:35;;;;;;;11.80;9.63;;;;;;;3.68;100.00;100183.84;5085812;28;20024;-73
2021/12/05 11:03:18;;;;;;;11.60;9.35;;;;;;;3.68;100.00;100178.75;5089783;28;20067;-71
2021/12/05 11:05:45;;;;;;;12.02;8.70;;;;;;;3.69;100.00;100185.56;5087054;28;20112;-70
2021/12/05 11:08:36;;;;;;;11.55;9.50;;;;;;;3.71;100.00;100184.84;5064198;28;20411;-73
2021/12/05 11:11:14;;;;;;;12.48;9.02;;;;;;;3.66;100.00;100185.44;5088467;28;20039;-72
2021/12/05 11:13:43;;;;;;;12.57;9.23;;;;;;;3.67;100.00;100184.66;5083187;28;20518;-72
2021/12/05 11:16:32;;;;;;;13.05;9.73;;;;;;;3.67;100.00;100193.13;5085922;28;20080;-73
2021/12/05 11:18:58;;;;;;;10.25;8.50;;;;;;;3.60;100.00;100188.59;5088102;28;20032;-72
2021/12/05 11:21:34;;;;;;;11.25;9.30;;;;;;;3.62;100.00;100192.06;5084709;28;20127;-71
2021/12/05 11:24:07;;;;;;;11.88;9.38;;;;;;;3.64;100.00;100200.66;5070692;28;20119;-71
2021/12/05 11:26:34;;;;;;;9.88;8.77;;;;;;;3.64;100.00;100205.72;5087775;28;20027;-71
2021/12/05 11:29:00;;;;;;;10.10;8.57;;;;;;;3.63;100.00;100198.00;5082681;28;20443;-72
2021/12/05 11:31:27;;;;;;;14.93;9.88;;;;;;;3.64;100.00;100205.72;5084834;28;20023;-71
2021/12/05 11:33:55;;;;;;;11.73;9.35;;;;;;;3.68;100.00;100209.25;5087702;28;20043;-74
2021/12/05 11:36:29;;;;;;;10.73;9.23;;;;;;;3.74;100.00;100214.63;5086947;28;20025;-71
2021/12/05 11:38:55;;;;;;;13.63;9.05;;;;;;;3.76;100.00;100221.53;5086881;28;20035;-71
2021/12/05 11:41:23;;;;;;;9.18;8.10;;;;;;;3.78;100.00;100221.59;5102688;28;21103;-71
2021/12/05 11:43:48;;;;;;;11.90;9.13;;;;;;;3.79;100.00;100220.78;5084627;28;20144;-72
2021/12/05 11:46:34;;;;;;;10.30;7.65;;;;;;;3.82;100.00;100230.22;5088199;28;20048;-73
2021/12/05 11:49:06;;;;;;;9.43;8.20;;;;;;;3.81;100.00;100225.94;5086618;28;20032;-72
2021/12/05 11:51:35;;;;;;;6.80;6.10;;;;;;;3.85;100.00;100230.38;5080817;28;20045;-71
2021/12/05 11:54:29;;;;;;;7.35;6.20;;;;;;;3.83;100.00;100229.44;5087081;28;20028;-73
2021/12/05 11:57:02;;;;;;;10.95;6.97;;;;;;;3.81;100.00;100233.56;5078022;28;20028;-71
2021/12/05 11:59:33;;;;;;;7.47;6.13;;;;;;;3.91;100.00;100235.72;5079395;28;20020;-71
2021/12/05 12:02:05;;;;;;;7.97;5.65;;;;;;;3.96;100.00;100242.75;5085796;28;20455;-74
2021/12/05 12:04:51;;;;;;;8.23;5.90;;;;;;;3.99;100.00;100234.38;5084286;28;20028;-72
2021/12/05 12:07:22;;;;;;;6.03;5.43;;;;;;;4.03;100.00;100238.81;5081610;28;20479;-71
2021/12/05 12:09:50;;;;;;;7.93;5.78;;;;;;;4.04;100.00;100241.41;5083517;28;20024;-73
2021/12/05 12:12:17;;;;;;;29.40;19.70;;;;;;;4.10;100.00;100247.59;5078795;28;20121;-72
2021/12/05 12:14:43;;;;;;;7.45;6.10;;;;;;;4.09;99.77;100238.22;5083741;28;20082;-72
2021/12/05 12:17:16;;;;;;;7.85;6.35;;;;;;;4.14;100.00;100246.94;5085522;28;20047;-70
2021/12/05 12:19:46;;;;;;;6.70;6.00;;;;;;;4.09;99.81;100244.16;5084026;28;20028;-72
2021/12/05 12:22:13;;;;;;;7.72;6.03;;;;;;;4.10;99.90;100247.59;5081869;28;20028;-73
2021/12/05 12:24:40;;;;;;;9.60;7.70;;;;;;;4.07;100.00;100243.25;5081724;28;20559;-74
2021/12/05 12:27:07;;;;;;;9.10;7.25;;;;;;;4.07;100.00;100250.88;5081855;28;20032;-73
2021/12/05 12:29:33;;;;;;;11.95;9.07;;;;;;;4.07;100.00;100260.19;5082916;28;20516;-75
2021/12/05 12:32:02;;;;;;;10.85;8.25;;;;;;;4.06;100.00;100258.41;5084788;28;20582;-72
2021/12/05 12:34:28;;;;;;;10.27;8.30;;;;;;;4.06;100.00;100264.38;5084626;28;20091;-72
2021/12/05 12:37:01;;;;;;;11.10;9.10;;;;;;;4.09;100.00;100268.75;5074399;28;20509;-71
2021/12/05 12:39:48;;;;;;;10.30;8.43;;;;;;;4.11;100.00;100267.13;5080720;28;20567;-72
2021/12/05 12:42:18;;;;;;;9.63;8.60;;;;;;;4.12;100.00;100268.88;5104918;28;20036;-71
2021/12/05 12:45:28;;;;;;;10.30;8.38;;;;;;;4.18;100.00;100270.00;5087702;28;20487;-71
2021/12/05 12:47:56;;;;;;;11.60;9.48;;;;;;;4.20;99.01;100272.63;5069698;28;20036;-71
2021/12/05 12:50:35;;;;;;;10.82;8.90;;;;;;;4.25;99.92;100278.81;5084355;28;20453;-71
2021/12/05 12:53:11;;;;;;;10.07;8.77;;;;;;;4.27;98.54;100284.81;5085758;28;20038;-71
2021/12/05 12:55:42;;;;;;;11.30;8.70;;;;;;;4.20;99.78;100283.69;5084416;28;20020;-70
2021/12/05 12:58:10;;;;;;;13.88;9.38;;;;;;;4.20;98.55;100278.59;5067672;28;20505;-71
2021/12/05 13:00:41;;;;;;;12.48;8.82;;;;;;;4.16;99.77;100286.88;5084823;28;20024;-73
2021/12/05 13:04:05;;;;;;;10.68;8.82;;;;;;;4.16;100.00;100281.81;5083550;28;20566;-70
2021/12/05 13:11:55;;;;;;;10.18;8.63;;;;;;;4.22;99.93;100302.44;5088603;28;20539;-71
2021/12/05 13:14:21;;;;;;;9.93;7.88;;;;;;;4.21;100.00;100298.16;5087591;28;20024;-71
2021/12/05 13:16:48;;;;;;;9.27;7.70;;;;;;;4.20;99.24;100298.94;5089519;28;20402;-73
2021/12/05 13:19:22;;;;;;;11.35;8.50;;;;;;;4.24;100.00;100310.13;5092056;28;20028;-71
2021/12/05 13:21:52;;;;;;;10.15;6.90;;;;;;;4.22;99.01;100302.44;5087564;28;20020;-71
2021/12/05 13:24:27;;;;;;;7.90;6.28;;;;;;;4.22;98.68;100312.59;5089617;28;20024;-76
2021/12/05 13:27:01;;;;;;;9.23;7.28;;;;;;;4.28;100.00;100312.88;5088877;28;20036;-70
2021/12/05 13:29:29;;;;;;;6.88;6.20;;;;;;;4.29;98.39;100308.66;5087757;28;20451;-70
2021/12/05 13:32:06;;;;;;;9.23;6.07;;;;;;;4.34;99.50;100313.97;5087117;28;20032;-73
2021/12/05 13:34:47;;;;;;;8.27;7.10;;;;;;;4.38;100.00;100326.03;5090379;28;20192;-71
2021/12/05 13:37:13;;;;;;;7.00;6.30;;;;;;;4.35;98.57;100331.84;5088718;28;20051;-72
2021/12/05 13:39:41;;;;;;;7.15;6.40;;;;;;;4.35;97.91;100333.50;5091175;28;20069;-72
2021/12/05 13:42:22;;;;;;;7.75;6.40;;;;;;;4.38;98.53;100331.13;5083550;28;20020;-70
2021/12/05 13:45:00;;;;;;;10.52;9.02;;;;;;;4.39;98.63;100337.94;5083173;28;20024;-73
2021/12/05 13:47:33;;;;;;;17.25;13.55;;;;;;;4.37;99.23;100331.91;5081078;28;20114;-71
2021/12/05 13:50:17;;;;;;;8.77;7.88;;;;;;;4.37;99.09;100332.78;5082026;28;20028;-72
2021/12/05 13:52:45;;;;;;;8.15;7.32;;;;;;;4.33;98.83;100346.19;5080879;28;20367;-72
2021/12/05 13:55:36;;;;;;;14.02;11.20;;;;;;;4.32;99.31;100343.56;5081106;28;20031;-72
2021/12/05 13:58:45;;;;;;;8.90;8.00;;;;;;;4.25;98.68;100344.97;5082683;28;20084;-73
2021/12/05 14:01:22;;;;;;;8.70;7.80;;;;;;;4.22;99.22;100350.78;5081505;28;20362;-72
2021/12/05 14:03:55;;;;;;;10.93;9.23;;;;;;;4.18;99.28;100356.53;5084017;28;20051;-70
2021/12/05 14:06:24;;;;;;;13.32;12.02;;;;;;;4.14;98.98;100351.25;5082786;28;20031;-73
2021/12/05 14:08:49;;;;;;;10.15;8.68;;;;;;;4.02;98.11;100347.34;5084821;28;20040;-72
2021/12/05 14:11:15;;;;;;;11.35;8.77;;;;;;;3.96;99.49;100352.16;5084527;28;20039;-72
2021/12/05 14:13:41;;;;;;;12.13;9.63;;;;;;;3.90;99.53;100344.22;5087275;28;20046;-72
2021/12/05 14:16:06;;;;;;;11.27;9.63;;;;;;;3.97;99.29;100369.16;5085714;28;20035;-70
2021/12/05 14:18:32;;;;;;;9.77;8.77;;;;;;;3.93;98.37;100374.00;5082766;28;20031;-73
2021/12/05 14:21:14;;;;;;;10.18;8.77;;;;;;;3.91;98.90;100381.59;5081773;28;20044;-71
2021/12/05 14:23:46;;;;;;;15.25;11.43;;;;;;;3.89;99.82;100382.31;5082566;28;20158;-72
2021/12/05 14:26:20;;;;;;;12.82;9.13;;;;;;;3.83;98.73;100385.44;5082773;28;20032;-72
2021/12/05 14:29:04;;;;;;;26.60;20.15;;;;;;;3.83;99.48;100397.28;5079649;28;20115;-73
2021/12/05 14:31:40;;;;;;;23.88;17.38;;;;;;;3.84;100.00;100407.53;5084740;28;20152;-72
2021/12/05 14:34:09;;;;;;;18.83;14.93;;;;;;;3.83;99.69;100412.56;5086319;28;20077;-71
2021/12/05 14:36:41;;;;;;;18.58;14.60;;;;;;;3.85;100.00;100409.28;5090873;28;20398;-71
2021/12/05 14:39:21;;;;;;;26.20;16.45;;;;;;;3.88;100.00;100419.56;5085542;28;20051;-71
2021/12/05 14:41:50;;;;;;;20.70;16.55;;;;;;;3.82;98.33;100426.03;5091861;28;20096;-73
2021/12/05 14:44:18;;;;;;;15.88;12.95;;;;;;;3.81;99.39;100427.72;5089400;28;20027;-71
2021/12/05 14:47:08;;;;;;;13.48;10.80;;;;;;;3.89;99.85;100438.28;5084595;28;20032;-70
2021/12/05 14:49:39;;;;;;;11.65;9.60;;;;;;;3.84;99.64;100437.19;5090383;28;20386;-72
2021/12/05 14:52:08;;;;;;;11.93;9.35;;;;;;;3.86;100.00;100449.16;5087196;28;20024;-69
2021/12/05 14:54:36;;;;;;;11.02;9.52;;;;;;;3.80;99.96;100448.88;5088275;28;20020;-71
2021/12/05 14:57:16;;;;;;;12.50;9.65;;;;;;;3.88;100.00;100461.94;5089649;28;20048;-73
2021/12/05 14:59:44;;;;;;;11.52;9.40;;;;;;;3.87;100.00;100460.19;5087895;28;20537;-69
2021/12/05 15:02:11;;;;;;;11.75;10.05;;;;;;;3.84;100.00;100468.56;5086918;28;20024;-72
2021/12/05 15:04:43;;;;;;;11.23;9.32;;;;;;;3.83;100.00;100464.28;5089349;28;20035;-70
2021/12/05 15:07:10;;;;;;;10.55;9.20;;;;;;;3.83;100.00;100478.69;5088284;28;20059;-75
2021/12/05 15:09:42;;;;;;;11.13;9.43;;;;;;;3.79;100.00;100475.09;5088914;28;20020;-75
2021/12/05 15:12:19;;;;;;;12.30;10.35;;;;;;;3.79;100.00;100485.28;5088291;28;20047;-72
2021/12/05 15:14:48;;;;;;;14.60;10.15;;;;;;;3.74;100.00;100486.72;5090720;28;20024;-72
2021/12/05 15:17:23;;;;;;;12.70;10.68;;;;;;;3.76;100.00;100500.38;5085992;28;20046;-72
2021/12/05 15:19:53;;;;;;;11.65;9.80;;;;;;;3.73;100.00;100503.66;5087766;28;20028;-72
2021/12/05 15:22:19;;;;;;;11.57;9.18;;;;;;;3.79;100.00;100510.69;5087338;28;20059;-73
2021/12/05 15:25:00;;;;;;;13.32;10.32;;;;;;;3.74;100.00;100509.59;5091220;28;20058;-71
2021/12/05 15:27:30;;;;;;;11.40;9.00;;;;;;;3.75;100.00;100513.88;5087559;28;20047;-72
2021/12/05 15:30:00;;;;;;;12.15;9.23;;;;;;;3.74;100.00;100518.09;5083907;28;20058;-71
2021/12/05 15:32:26;;;;;;;;;;;;;;;3.77;100.00;100527.56;5088357;28;20463;-71
2021/12/05 15:34:56;;;;;;;15.90;11.77;;;;;;;3.75;100.00;100524.91;5088606;28;20365;-70
2021/12/05 15:37:22;;;;;;;15.85;11.38;;;;;;;3.76;100.00;100543.59;5087843;28;20035;-70
2021/12/05 15:39:51;;;;;;;14.43;11.25;;;;;;;3.69;100.00;100539.88;5088748;28;20047;-72
2021/12/05 15:42:23;;;;;;;13.93;11.23;;;;;;;3.69;100.00;100556.81;5088449;28;20038;-71
2021/12/05 15:44:51;;;;;;;12.23;9.43;;;;;;;3.66;99.94;100549.91;5088436;28;20047;-72
2021/12/05 15:47:20;;;;;;;12.02;10.00;;;;;;;3.65;100.00;100550.72;5089552;28;20030;-70
2021/12/05 15:49:56;;;;;;;12.43;9.77;;;;;;;3.66;100.00;100561.75;5087439;28;20070;-71
2021/12/05 15:52:49;;;;;;;14.38;10.60;;;;;;;3.65;100.00;100557.47;5082572;28;20035;-71
2021/12/05 15:55:25;;;;;;;15.02;11.80;;;;;;;3.65;100.00;100568.50;5080202;28;20036;-76
2021/12/05 15:58:01;;;;;;;13.48;10.80;;;;;;;3.65;100.00;100568.50;5085828;28;20032;-72
2021/12/05 16:00:32;;;;;;;12.15;9.85;;;;;;;3.64;100.00;100574.41;5085761;28;20028;-73
2021/12/05 16:02:58;;;;;;;11.93;9.82;;;;;;;3.65;100.00;100582.91;5085721;28;20070;-72
2021/12/05 16:05:24;;;;;;;12.30;10.25;;;;;;;3.65;100.00;100581.22;5088431;28;20116;-72
2021/12/05 16:07:50;;;;;;;12.50;10.65;;;;;;;3.65;100.00;100585.44;5086255;28;20032;-73
2021/12/05 16:10:22;;;;;;;15.48;11.73;;;;;;;3.64;100.00;100587.09;5086430;28;20032;-72
2021/12/05 16:12:51;;;;;;;13.88;11.65;;;;;;;3.61;100.00;100589.47;5086074;28;20464;-71
2021/12/05 16:15:18;;;;;;;13.73;11.45;;;;;;;3.63;100.00;100592.09;5086021;28;20019;-71
2021/12/05 16:17:52;;;;;;;14.50;11.10;;;;;;;3.62;100.00;100591.22;5083091;28;20024;-71
2021/12/05 16:20:21;;;;;;;14.43;11.10;;;;;;;3.59;100.00;100600.38;5082363;28;20027;-75
2021/12/05 16:23:18;;;;;;;12.27;10.93;;;;;;;3.61;100.00;100604.72;5087029;28;20016;-73
2021/12/05 16:25:58;;;;;;;13.18;9.85;;;;;;;3.62;100.00;100625.94;5086392;28;20221;-71
2021/12/05 16:28:31;;;;;;;11.60;9.35;;;;;;;3.60;100.00;100630.97;5086655;28;20036;-71
2021/12/05 16:31:05;;;;;;;20.50;13.65;;;;;;;3.58;100.00;100629.09;5083266;28;20028;-72
2021/12/05 16:33:31;;;;;;;15.25;11.10;;;;;;;3.57;100.00;100635.00;5099983;28;20059;-71
2021/12/05 16:35:58;;;;;;;12.38;8.88;;;;;;;3.56;100.00;100636.66;5087882;28;20039;-71
2021/12/05 16:38:46;;;;;;;14.52;9.35;;;;;;;3.58;99.95;100631.66;5090485;28;20491;-70
2021/12/05 16:41:26;;;;;;;12.55;9.10;;;;;;;3.53;100.00;100639.06;5088666;28;20035;-72
2021/12/05 16:43:54;;;;;;;10.13;7.65;;;;;;;3.55;99.37;100645.09;5085679;28;20032;-72
2021/12/05 16:46:36;;;;;;;13.85;8.98;;;;;;;3.53;98.91;100641.59;5091127;28;20028;-71
2021/12/05 16:49:06;;;;;;;16.48;11.88;;;;;;;3.50;98.76;100633.81;5092607;28;20030;-73
2021/12/05 16:51:51;;;;;;;;;;;;;;;3.56;100.00;100644.28;5088144;28;20035;-73
2021/12/05 16:54:21;;;;;;;13.68;10.27;;;;;;;3.52;99.41;100647.50;5086871;28;19920;-73
2021/12/05 16:56:48;;;;;;;;;;;;;;;3.55;100.00;100650.19;5086352;28;20032;-76
2021/12/05 16:59:20;;;;;;;21.08;14.25;;;;;;;3.51;100.00;100648.25;5085984;28;19912;-71
2021/12/05 17:01:46;;;;;;;17.13;12.98;;;;;;;3.51;100.00;100658.44;5088998;28;20028;-70
2021/12/05 17:04:12;;;;;;;18.25;13.40;;;;;;;3.50;99.99;100652.47;5087270;28;20110;-71
2021/12/05 17:06:54;;;;;;;16.42;12.52;;;;;;;3.53;100.00;100672.13;5088218;28;20111;-70
2021/12/05 17:09:19;;;;;;;20.05;14.65;;;;;;;3.50;99.40;100671.94;5090549;28;20032;-71
2021/12/05 17:11:45;;;;;;;24.10;15.38;;;;;;;3.50;99.83;100675.34;5092433;28;20024;-71
2021/12/05 17:14:24;;;;;;;18.88;13.73;;;;;;;3.51;100.00;100683.84;5085134;28;20031;-71
2021/12/05 17:16:50;;;;;;;11.98;9.63;;;;;;;3.52;100.00;100685.63;5082780;28;20032;-72